sensor_id;sensor_type;location;lat;lon;timestamp;P1;durP1;ratioP1;P2;durP2;ratioP2
58756;SDS011;44527;47.460;19.016;2023-07-31T00:02:28;3.90;;;2.17;;
58756;SDS011;44527;47.460;19.016;2023-07-31T00:05:31;6.62;;;2.03;;
58756;SDS011;44527;47.460;19.016;2023-07-31T00:08:33;3.72;;;2.37;;
58756;SDS011;44527;47.460;19.016;2023-07-31T00:11:35;3.35;;;2.20;;
58756;SDS011;44527;47.460;19.016;2023-07-31T00:14:38;2.67;;;1.80;;
58756;SDS011;44527;47.460;19.016;2023-07-31T00:17:40;4.50;;;2.12;;
58756;SDS011;44527;47.460;19.016;2023-07-31T00:20:43;3.72;;;2.40;;
58756;SDS011;44527;47.460;19.016;2023-07-31T00:23:45;3.20;;;2.30;;
58756;SDS011;44527;47.460;19.016;2023-07-31T00:26:48;5.18;;;2.28;;
58756;SDS011;44527;47.460;19.016;2023-07-31T00:29:50;3.83;;;2.20;;
58756;SDS011;44527;47.460;19.016;2023-07-31T00:32:52;3.62;;;2.20;;
58756;SDS011;44527;47.460;19.016;2023-07-31T00:35:55;9.15;;;2.20;;
58756;SDS011;44527;47.460;19.016;2023-07-31T00:38:57;3.22;;;2.37;;
58756;SDS011;44527;47.460;19.016;2023-07-31T00:42:01;8.63;;;2.40;;
58756;SDS011;44527;47.460;19.016;2023-07-31T00:45:03;4.20;;;2.25;;
58756;SDS011;44527;47.460;19.016;2023-07-31T00:48:06;4.80;;;2.80;;
58756;SDS011;44527;47.460;19.016;2023-07-31T00:51:09;3.42;;;2.10;;
58756;SDS011;44527;47.460;19.016;2023-07-31T00:54:12;3.62;;;2.08;;
58756;SDS011;44527;47.460;19.016;2023-07-31T00:57:15;3.05;;;1.85;;
58756;SDS011;44527;47.460;19.016;2023-07-31T01:00:18;3.10;;;2.08;;
58756;SDS011;44527;47.460;19.016;2023-07-31T01:03:21;3.83;;;2.15;;
58756;SDS011;44527;47.460;19.016;2023-07-31T01:10:02;3.20;;;2.05;;
58756;SDS011;44527;47.460;19.016;2023-07-31T01:13:13;2.25;;;1.80;;
58756;SDS011;44527;47.460;19.016;2023-07-31T01:16:17;2.28;;;1.48;;
58756;SDS011;44527;47.460;19.016;2023-07-31T01:19:22;6.55;;;1.80;;
58756;SDS011;44527;47.460;19.016;2023-07-31T01:29:16;3.05;;;1.75;;
58756;SDS011;44527;47.460;19.016;2023-07-31T01:32:20;2.47;;;1.60;;
58756;SDS011;44527;47.460;19.016;2023-07-31T01:35:24;2.10;;;1.65;;
58756;SDS011;44527;47.460;19.016;2023-07-31T01:38:27;2.35;;;1.40;;
58756;SDS011;44527;47.460;19.016;2023-07-31T01:41:29;3.87;;;1.73;;
58756;SDS011;44527;47.460;19.016;2023-07-31T01:44:32;2.55;;;1.42;;
58756;SDS011;44527;47.460;19.016;2023-07-31T01:47:34;2.87;;;1.60;;
58756;SDS011;44527;47.460;19.016;2023-07-31T01:50:37;2.83;;;1.60;;
58756;SDS011;44527;47.460;19.016;2023-07-31T01:53:41;3.25;;;1.85;;
58756;SDS011;44527;47.460;19.016;2023-07-31T01:56:43;5.53;;;1.80;;
58756;SDS011;44527;47.460;19.016;2023-07-31T01:59:45;4.65;;;1.60;;
58756;SDS011;44527;47.460;19.016;2023-07-31T02:02:48;3.08;;;1.77;;
58756;SDS011;44527;47.460;19.016;2023-07-31T02:05:53;5.07;;;1.80;;
58756;SDS011;44527;47.460;19.016;2023-07-31T02:08:56;3.55;;;1.98;;
58756;SDS011;44527;47.460;19.016;2023-07-31T02:11:59;2.03;;;1.67;;
58756;SDS011;44527;47.460;19.016;2023-07-31T02:15:01;3.53;;;1.60;;
58756;SDS011;44527;47.460;19.016;2023-07-31T02:18:03;4.47;;;1.15;;
58756;SDS011;44527;47.460;19.016;2023-07-31T02:21:06;3.25;;;1.60;;
58756;SDS011;44527;47.460;19.016;2023-07-31T02:24:08;2.67;;;1.52;;
58756;SDS011;44527;47.460;19.016;2023-07-31T02:27:11;2.58;;;1.45;;
58756;SDS011;44527;47.460;19.016;2023-07-31T02:30:13;1.77;;;1.30;;
58756;SDS011;44527;47.460;19.016;2023-07-31T02:33:15;2.50;;;1.70;;
58756;SDS011;44527;47.460;19.016;2023-07-31T02:36:21;2.47;;;1.45;;
58756;SDS011;44527;47.460;19.016;2023-07-31T02:39:23;3.15;;;1.55;;
58756;SDS011;44527;47.460;19.016;2023-07-31T02:42:26;2.30;;;1.55;;
58756;SDS011;44527;47.460;19.016;2023-07-31T02:45:28;2.65;;;1.40;;
58756;SDS011;44527;47.460;19.016;2023-07-31T02:48:30;3.65;;;1.87;;
58756;SDS011;44527;47.460;19.016;2023-07-31T02:51:33;3.22;;;1.67;;
58756;SDS011;44527;47.460;19.016;2023-07-31T02:54:35;2.35;;;1.70;;
58756;SDS011;44527;47.460;19.016;2023-07-31T02:57:38;4.90;;;1.65;;
58756;SDS011;44527;47.460;19.016;2023-07-31T03:00:43;2.58;;;1.30;;
58756;SDS011;44527;47.460;19.016;2023-07-31T03:03:46;3.90;;;1.67;;
58756;SDS011;44527;47.460;19.016;2023-07-31T03:06:49;3.90;;;1.55;;
58756;SDS011;44527;47.460;19.016;2023-07-31T03:09:51;2.95;;;1.48;;
58756;SDS011;44527;47.460;19.016;2023-07-31T03:12:55;6.15;;;1.65;;
58756;SDS011;44527;47.460;19.016;2023-07-31T03:15:57;2.75;;;1.60;;
58756;SDS011;44527;47.460;19.016;2023-07-31T03:18:59;3.85;;;1.60;;
58756;SDS011;44527;47.460;19.016;2023-07-31T03:22:02;4.70;;;1.50;;
58756;SDS011;44527;47.460;19.016;2023-07-31T03:25:05;3.22;;;1.80;;
58756;SDS011;44527;47.460;19.016;2023-07-31T03:28:07;3.58;;;1.80;;
58756;SDS011;44527;47.460;19.016;2023-07-31T03:31:11;7.37;;;1.52;;
58756;SDS011;44527;47.460;19.016;2023-07-31T03:34:13;5.37;;;1.87;;
58756;SDS011;44527;47.460;19.016;2023-07-31T03:37:16;4.03;;;1.35;;
58756;SDS011;44527;47.460;19.016;2023-07-31T03:40:18;3.92;;;1.95;;
58756;SDS011;44527;47.460;19.016;2023-07-31T03:43:21;6.68;;;1.40;;
58756;SDS011;44527;47.460;19.016;2023-07-31T03:46:23;3.08;;;1.40;;
58756;SDS011;44527;47.460;19.016;2023-07-31T03:49:26;5.47;;;1.50;;
58756;SDS011;44527;47.460;19.016;2023-07-31T03:52:29;3.70;;;2.55;;
58756;SDS011;44527;47.460;19.016;2023-07-31T03:55:31;3.08;;;1.58;;
58756;SDS011;44527;47.460;19.016;2023-07-31T03:58:34;5.22;;;1.67;;
58756;SDS011;44527;47.460;19.016;2023-07-31T04:01:37;3.17;;;1.50;;
58756;SDS011;44527;47.460;19.016;2023-07-31T04:04:39;6.60;;;1.20;;
58756;SDS011;44527;47.460;19.016;2023-07-31T04:07:42;2.67;;;1.50;;
58756;SDS011;44527;47.460;19.016;2023-07-31T04:10:44;2.42;;;1.35;;
58756;SDS011;44527;47.460;19.016;2023-07-31T04:13:47;6.05;;;1.87;;
58756;SDS011;44527;47.460;19.016;2023-07-31T04:16:50;2.65;;;1.70;;
58756;SDS011;44527;47.460;19.016;2023-07-31T04:19:52;6.35;;;1.75;;
58756;SDS011;44527;47.460;19.016;2023-07-31T04:22:55;3.78;;;1.75;;
58756;SDS011;44527;47.460;19.016;2023-07-31T04:25:57;4.18;;;1.20;;
58756;SDS011;44527;47.460;19.016;2023-07-31T04:29:00;2.67;;;1.35;;
58756;SDS011;44527;47.460;19.016;2023-07-31T04:32:02;5.10;;;1.70;;
58756;SDS011;44527;47.460;19.016;2023-07-31T04:35:05;3.33;;;1.77;;
58756;SDS011;44527;47.460;19.016;2023-07-31T04:38:07;3.37;;;1.85;;
58756;SDS011;44527;47.460;19.016;2023-07-31T04:41:09;2.22;;;1.35;;
58756;SDS011;44527;47.460;19.016;2023-07-31T04:44:12;4.75;;;1.48;;
58756;SDS011;44527;47.460;19.016;2023-07-31T04:47:14;4.45;;;1.40;;
58756;SDS011;44527;47.460;19.016;2023-07-31T04:50:17;9.18;;;1.62;;
58756;SDS011;44527;47.460;19.016;2023-07-31T04:53:20;3.67;;;1.80;;
58756;SDS011;44527;47.460;19.016;2023-07-31T04:56:23;5.75;;;1.67;;
58756;SDS011;44527;47.460;19.016;2023-07-31T04:59:26;2.62;;;1.30;;
58756;SDS011;44527;47.460;19.016;2023-07-31T05:02:28;7.05;;;1.60;;
58756;SDS011;44527;47.460;19.016;2023-07-31T05:05:31;5.07;;;1.50;;
58756;SDS011;44527;47.460;19.016;2023-07-31T05:08:33;4.25;;;1.40;;
58756;SDS011;44527;47.460;19.016;2023-07-31T05:11:36;1.92;;;1.08;;
58756;SDS011;44527;47.460;19.016;2023-07-31T05:14:38;3.92;;;1.23;;
58756;SDS011;44527;47.460;19.016;2023-07-31T05:17:40;5.10;;;1.83;;
58756;SDS011;44527;47.460;19.016;2023-07-31T05:20:43;2.37;;;1.02;;
58756;SDS011;44527;47.460;19.016;2023-07-31T05:23:45;4.12;;;1.02;;
58756;SDS011;44527;47.460;19.016;2023-07-31T05:26:49;2.45;;;1.00;;
58756;SDS011;44527;47.460;19.016;2023-07-31T05:29:52;2.22;;;1.10;;
58756;SDS011;44527;47.460;19.016;2023-07-31T05:32:54;3.30;;;1.08;;
58756;SDS011;44527;47.460;19.016;2023-07-31T05:35:57;2.55;;;1.10;;
58756;SDS011;44527;47.460;19.016;2023-07-31T05:38:59;3.30;;;1.62;;
58756;SDS011;44527;47.460;19.016;2023-07-31T05:42:01;5.15;;;1.08;;
58756;SDS011;44527;47.460;19.016;2023-07-31T05:45:06;2.50;;;1.10;;
58756;SDS011;44527;47.460;19.016;2023-07-31T05:48:09;5.70;;;1.20;;
58756;SDS011;44527;47.460;19.016;2023-07-31T05:51:11;1.77;;;0.93;;
58756;SDS011;44527;47.460;19.016;2023-07-31T05:54:14;2.37;;;1.08;;
58756;SDS011;44527;47.460;19.016;2023-07-31T05:57:16;3.03;;;1.05;;
58756;SDS011;44527;47.460;19.016;2023-07-31T06:00:19;5.03;;;1.40;;
58756;SDS011;44527;47.460;19.016;2023-07-31T06:03:23;4.95;;;0.80;;
58756;SDS011;44527;47.460;19.016;2023-07-31T06:06:26;3.00;;;1.08;;
58756;SDS011;44527;47.460;19.016;2023-07-31T06:09:28;3.47;;;1.20;;
58756;SDS011;44527;47.460;19.016;2023-07-31T06:12:34;6.65;;;1.20;;
58756;SDS011;44527;47.460;19.016;2023-07-31T06:15:37;2.07;;;1.00;;
58756;SDS011;44527;47.460;19.016;2023-07-31T06:18:39;3.60;;;0.90;;
58756;SDS011;44527;47.460;19.016;2023-07-31T06:21:42;3.20;;;1.12;;
58756;SDS011;44527;47.460;19.016;2023-07-31T06:24:46;3.03;;;1.17;;
58756;SDS011;44527;47.460;19.016;2023-07-31T06:27:49;3.08;;;1.08;;
58756;SDS011;44527;47.460;19.016;2023-07-31T06:30:51;5.85;;;1.20;;
58756;SDS011;44527;47.460;19.016;2023-07-31T06:33:54;5.65;;;1.00;;
58756;SDS011;44527;47.460;19.016;2023-07-31T06:36:56;2.15;;;0.82;;
58756;SDS011;44527;47.460;19.016;2023-07-31T06:39:59;2.12;;;1.10;;
58756;SDS011;44527;47.460;19.016;2023-07-31T06:43:01;2.37;;;1.08;;
58756;SDS011;44527;47.460;19.016;2023-07-31T06:46:10;3.58;;;1.23;;
58756;SDS011;44527;47.460;19.016;2023-07-31T06:49:13;6.40;;;1.20;;
58756;SDS011;44527;47.460;19.016;2023-07-31T06:52:18;1.37;;;0.90;;
58756;SDS011;44527;47.460;19.016;2023-07-31T06:55:21;21.92;;;2.25;;
58756;SDS011;44527;47.460;19.016;2023-07-31T06:58:25;10.50;;;1.70;;
58756;SDS011;44527;47.460;19.016;2023-07-31T07:01:27;2.55;;;1.00;;
58756;SDS011;44527;47.460;19.016;2023-07-31T07:04:31;4.32;;;1.20;;
58756;SDS011;44527;47.460;19.016;2023-07-31T07:07:33;8.45;;;1.23;;
58756;SDS011;44527;47.460;19.016;2023-07-31T07:10:36;2.83;;;1.00;;
58756;SDS011;44527;47.460;19.016;2023-07-31T07:13:39;3.28;;;1.12;;
58756;SDS011;44527;47.460;19.016;2023-07-31T07:16:41;6.53;;;1.35;;
58756;SDS011;44527;47.460;19.016;2023-07-31T07:19:44;1.67;;;1.00;;
58756;SDS011;44527;47.460;19.016;2023-07-31T07:22:48;3.10;;;1.10;;
58756;SDS011;44527;47.460;19.016;2023-07-31T07:25:50;7.97;;;1.30;;
58756;SDS011;44527;47.460;19.016;2023-07-31T07:28:55;3.75;;;0.95;;
58756;SDS011;44527;47.460;19.016;2023-07-31T07:32:01;7.85;;;1.35;;
58756;SDS011;44527;47.460;19.016;2023-07-31T07:35:04;7.93;;;1.02;;
58756;SDS011;44527;47.460;19.016;2023-07-31T07:38:08;4.72;;;1.08;;
58756;SDS011;44527;47.460;19.016;2023-07-31T07:41:13;2.55;;;1.00;;
58756;SDS011;44527;47.460;19.016;2023-07-31T07:44:21;2.75;;;0.90;;
58756;SDS011;44527;47.460;19.016;2023-07-31T07:47:32;3.70;;;1.00;;
58756;SDS011;44527;47.460;19.016;2023-07-31T07:50:34;1.85;;;0.90;;
58756;SDS011;44527;47.460;19.016;2023-07-31T07:53:37;5.40;;;1.23;;
58756;SDS011;44527;47.460;19.016;2023-07-31T07:56:39;2.08;;;1.00;;
58756;SDS011;44527;47.460;19.016;2023-07-31T07:59:42;2.20;;;1.00;;
58756;SDS011;44527;47.460;19.016;2023-07-31T08:02:44;4.68;;;1.58;;
58756;SDS011;44527;47.460;19.016;2023-07-31T08:05:47;3.58;;;1.10;;
58756;SDS011;44527;47.460;19.016;2023-07-31T08:08:50;3.33;;;1.10;;
58756;SDS011;44527;47.460;19.016;2023-07-31T08:11:52;4.45;;;0.80;;
58756;SDS011;44527;47.460;19.016;2023-07-31T08:14:55;6.05;;;1.00;;
58756;SDS011;44527;47.460;19.016;2023-07-31T08:17:57;4.68;;;0.90;;
58756;SDS011;44527;47.460;19.016;2023-07-31T08:21:01;8.68;;;1.35;;
58756;SDS011;44527;47.460;19.016;2023-07-31T08:24:04;3.17;;;1.00;;
58756;SDS011;44527;47.460;19.016;2023-07-31T08:27:06;2.20;;;1.08;;
58756;SDS011;44527;47.460;19.016;2023-07-31T08:30:09;2.58;;;1.10;;
58756;SDS011;44527;47.460;19.016;2023-07-31T08:33:12;5.43;;;1.15;;
58756;SDS011;44527;47.460;19.016;2023-07-31T08:36:15;4.10;;;1.20;;
58756;SDS011;44527;47.460;19.016;2023-07-31T08:39:17;4.07;;;1.20;;
58756;SDS011;44527;47.460;19.016;2023-07-31T08:42:20;4.37;;;1.00;;
58756;SDS011;44527;47.460;19.016;2023-07-31T08:45:22;5.25;;;1.48;;
58756;SDS011;44527;47.460;19.016;2023-07-31T08:48:25;4.45;;;1.30;;
58756;SDS011;44527;47.460;19.016;2023-07-31T08:51:28;2.42;;;1.02;;
58756;SDS011;44527;47.460;19.016;2023-07-31T08:54:32;7.18;;;1.42;;
58756;SDS011;44527;47.460;19.016;2023-07-31T08:57:36;2.78;;;1.35;;
58756;SDS011;44527;47.460;19.016;2023-07-31T09:00:39;3.15;;;0.98;;
58756;SDS011;44527;47.460;19.016;2023-07-31T09:03:42;2.70;;;0.95;;
58756;SDS011;44527;47.460;19.016;2023-07-31T09:06:46;5.80;;;1.67;;
58756;SDS011;44527;47.460;19.016;2023-07-31T09:09:50;4.78;;;1.17;;
58756;SDS011;44527;47.460;19.016;2023-07-31T09:12:52;5.40;;;1.08;;
58756;SDS011;44527;47.460;19.016;2023-07-31T09:15:55;5.45;;;1.10;;
58756;SDS011;44527;47.460;19.016;2023-07-31T09:18:57;3.78;;;1.20;;
58756;SDS011;44527;47.460;19.016;2023-07-31T09:22:00;2.83;;;1.08;;
58756;SDS011;44527;47.460;19.016;2023-07-31T09:25:17;3.65;;;1.33;;
58756;SDS011;44527;47.460;19.016;2023-07-31T09:28:21;2.83;;;0.90;;
58756;SDS011;44527;47.460;19.016;2023-07-31T09:34:41;4.20;;;1.08;;
58756;SDS011;44527;47.460;19.016;2023-07-31T09:37:43;3.05;;;1.20;;
58756;SDS011;44527;47.460;19.016;2023-07-31T09:40:47;2.25;;;1.00;;
58756;SDS011;44527;47.460;19.016;2023-07-31T09:43:53;3.08;;;1.12;;
58756;SDS011;44527;47.460;19.016;2023-07-31T09:46:56;3.70;;;1.00;;
58756;SDS011;44527;47.460;19.016;2023-07-31T09:49:59;3.55;;;1.00;;
58756;SDS011;44527;47.460;19.016;2023-07-31T09:53:01;5.72;;;0.90;;
58756;SDS011;44527;47.460;19.016;2023-07-31T09:56:03;7.82;;;1.02;;
58756;SDS011;44527;47.460;19.016;2023-07-31T09:59:06;2.65;;;1.25;;
58756;SDS011;44527;47.460;19.016;2023-07-31T10:02:14;4.30;;;0.80;;
58756;SDS011;44527;47.460;19.016;2023-07-31T10:05:22;3.90;;;1.25;;
58756;SDS011;44527;47.460;19.016;2023-07-31T10:08:30;5.15;;;1.27;;
58756;SDS011;44527;47.460;19.016;2023-07-31T10:11:37;3.50;;;1.20;;
58756;SDS011;44527;47.460;19.016;2023-07-31T10:14:43;4.22;;;1.05;;
58756;SDS011;44527;47.460;19.016;2023-07-31T10:17:47;3.78;;;1.35;;
58756;SDS011;44527;47.460;19.016;2023-07-31T10:20:50;4.60;;;1.10;;
58756;SDS011;44527;47.460;19.016;2023-07-31T10:23:54;9.77;;;1.40;;
58756;SDS011;44527;47.460;19.016;2023-07-31T10:26:57;3.75;;;1.20;;
58756;SDS011;44527;47.460;19.016;2023-07-31T10:30:02;3.45;;;1.27;;
58756;SDS011;44527;47.460;19.016;2023-07-31T10:33:07;2.33;;;1.00;;
58756;SDS011;44527;47.460;19.016;2023-07-31T10:36:19;3.92;;;0.90;;
58756;SDS011;44527;47.460;19.016;2023-07-31T10:39:36;7.43;;;1.27;;
58756;SDS011;44527;47.460;19.016;2023-07-31T10:42:46;5.68;;;1.33;;
58756;SDS011;44527;47.460;19.016;2023-07-31T10:45:50;4.35;;;1.12;;
58756;SDS011;44527;47.460;19.016;2023-07-31T10:48:59;4.35;;;1.10;;
58756;SDS011;44527;47.460;19.016;2023-07-31T10:52:03;5.43;;;1.10;;
58756;SDS011;44527;47.460;19.016;2023-07-31T10:55:16;4.00;;;1.10;;
58756;SDS011;44527;47.460;19.016;2023-07-31T10:58:27;3.22;;;1.12;;
58756;SDS011;44527;47.460;19.016;2023-07-31T11:05:06;3.95;;;1.12;;
58756;SDS011;44527;47.460;19.016;2023-07-31T11:08:19;3.97;;;1.00;;
58756;SDS011;44527;47.460;19.016;2023-07-31T11:11:22;4.85;;;1.20;;
58756;SDS011;44527;47.460;19.016;2023-07-31T11:14:24;4.18;;;1.00;;
58756;SDS011;44527;47.460;19.016;2023-07-31T11:17:27;6.60;;;1.50;;
58756;SDS011;44527;47.460;19.016;2023-07-31T11:20:30;2.97;;;1.00;;
58756;SDS011;44527;47.460;19.016;2023-07-31T11:23:32;8.98;;;1.05;;
58756;SDS011;44527;47.460;19.016;2023-07-31T11:26:35;6.10;;;1.10;;
58756;SDS011;44527;47.460;19.016;2023-07-31T11:29:37;4.10;;;1.05;;
58756;SDS011;44527;47.460;19.016;2023-07-31T11:32:40;8.25;;;1.25;;
58756;SDS011;44527;47.460;19.016;2023-07-31T11:35:46;2.78;;;0.90;;
58756;SDS011;44527;47.460;19.016;2023-07-31T11:38:51;3.72;;;1.15;;
58756;SDS011;44527;47.460;19.016;2023-07-31T11:41:58;3.83;;;0.82;;
58756;SDS011;44527;47.460;19.016;2023-07-31T11:48:17;5.37;;;1.05;;
58756;SDS011;44527;47.460;19.016;2023-07-31T11:51:24;1.58;;;0.88;;
58756;SDS011;44527;47.460;19.016;2023-07-31T11:54:27;6.25;;;1.35;;
58756;SDS011;44527;47.460;19.016;2023-07-31T11:57:31;7.37;;;1.02;;
58756;SDS011;44527;47.460;19.016;2023-07-31T12:00:33;4.55;;;1.10;;
58756;SDS011;44527;47.460;19.016;2023-07-31T12:03:36;3.80;;;1.10;;
58756;SDS011;44527;47.460;19.016;2023-07-31T12:06:40;2.00;;;0.93;;
58756;SDS011;44527;47.460;19.016;2023-07-31T12:09:54;3.87;;;1.23;;
58756;SDS011;44527;47.460;19.016;2023-07-31T12:13:04;3.90;;;1.20;;
58756;SDS011;44527;47.460;19.016;2023-07-31T12:16:08;4.47;;;1.30;;
58756;SDS011;44527;47.460;19.016;2023-07-31T12:19:10;4.03;;;1.20;;
58756;SDS011;44527;47.460;19.016;2023-07-31T12:22:13;3.37;;;1.17;;
58756;SDS011;44527;47.460;19.016;2023-07-31T12:25:16;1.95;;;0.93;;
58756;SDS011;44527;47.460;19.016;2023-07-31T12:28:21;9.50;;;1.00;;
58756;SDS011;44527;47.460;19.016;2023-07-31T12:31:25;4.97;;;0.80;;
58756;SDS011;44527;47.460;19.016;2023-07-31T12:34:30;6.57;;;1.15;;
58756;SDS011;44527;47.460;19.016;2023-07-31T12:37:32;4.85;;;0.90;;
58756;SDS011;44527;47.460;19.016;2023-07-31T12:40:37;4.22;;;1.12;;
58756;SDS011;44527;47.460;19.016;2023-07-31T12:43:41;3.85;;;1.15;;
58756;SDS011;44527;47.460;19.016;2023-07-31T12:46:44;3.85;;;1.00;;
58756;SDS011;44527;47.460;19.016;2023-07-31T12:49:47;1.73;;;1.08;;
58756;SDS011;44527;47.460;19.016;2023-07-31T12:52:49;2.53;;;1.10;;
58756;SDS011;44527;47.460;19.016;2023-07-31T12:55:51;3.33;;;1.40;;
58756;SDS011;44527;47.460;19.016;2023-07-31T12:58:54;3.20;;;1.23;;
58756;SDS011;44527;47.460;19.016;2023-07-31T13:01:56;5.12;;;0.90;;
58756;SDS011;44527;47.460;19.016;2023-07-31T13:04:59;4.65;;;1.00;;
58756;SDS011;44527;47.460;19.016;2023-07-31T13:08:01;2.53;;;0.80;;
58756;SDS011;44527;47.460;19.016;2023-07-31T13:11:04;3.62;;;1.20;;
58756;SDS011;44527;47.460;19.016;2023-07-31T13:14:06;4.15;;;0.98;;
58756;SDS011;44527;47.460;19.016;2023-07-31T13:17:09;3.97;;;1.42;;
58756;SDS011;44527;47.460;19.016;2023-07-31T13:20:11;4.37;;;1.42;;
58756;SDS011;44527;47.460;19.016;2023-07-31T13:23:14;2.28;;;0.85;;
58756;SDS011;44527;47.460;19.016;2023-07-31T13:26:16;3.40;;;0.82;;
58756;SDS011;44527;47.460;19.016;2023-07-31T13:29:18;3.87;;;1.15;;
58756;SDS011;44527;47.460;19.016;2023-07-31T13:32:21;3.90;;;1.05;;
58756;SDS011;44527;47.460;19.016;2023-07-31T13:35:23;2.65;;;1.10;;
58756;SDS011;44527;47.460;19.016;2023-07-31T13:38:26;5.28;;;1.30;;
58756;SDS011;44527;47.460;19.016;2023-07-31T13:41:28;7.25;;;1.20;;
58756;SDS011;44527;47.460;19.016;2023-07-31T13:44:30;6.93;;;1.40;;
58756;SDS011;44527;47.460;19.016;2023-07-31T13:47:33;5.03;;;1.10;;
58756;SDS011;44527;47.460;19.016;2023-07-31T13:50:36;2.28;;;1.00;;
58756;SDS011;44527;47.460;19.016;2023-07-31T13:53:39;5.35;;;1.30;;
58756;SDS011;44527;47.460;19.016;2023-07-31T13:56:42;5.93;;;1.30;;
58756;SDS011;44527;47.460;19.016;2023-07-31T13:59:45;2.33;;;0.95;;
58756;SDS011;44527;47.460;19.016;2023-07-31T14:02:47;6.95;;;1.25;;
58756;SDS011;44527;47.460;19.016;2023-07-31T14:05:51;3.95;;;1.10;;
58756;SDS011;44527;47.460;19.016;2023-07-31T14:08:53;3.75;;;1.23;;
58756;SDS011;44527;47.460;19.016;2023-07-31T14:11:57;4.07;;;1.20;;
58756;SDS011;44527;47.460;19.016;2023-07-31T14:14:59;4.03;;;1.08;;
58756;SDS011;44527;47.460;19.016;2023-07-31T14:18:02;4.97;;;1.00;;
58756;SDS011;44527;47.460;19.016;2023-07-31T14:21:05;5.47;;;1.00;;
58756;SDS011;44527;47.460;19.016;2023-07-31T14:24:07;4.10;;;1.12;;
58756;SDS011;44527;47.460;19.016;2023-07-31T14:27:09;6.57;;;1.02;;
58756;SDS011;44527;47.460;19.016;2023-07-31T14:30:12;3.55;;;1.20;;
58756;SDS011;44527;47.460;19.016;2023-07-31T14:33:14;3.35;;;1.10;;
58756;SDS011;44527;47.460;19.016;2023-07-31T14:36:16;3.50;;;1.10;;
58756;SDS011;44527;47.460;19.016;2023-07-31T14:39:19;2.62;;;1.10;;
58756;SDS011;44527;47.460;19.016;2023-07-31T14:42:21;3.75;;;1.20;;
58756;SDS011;44527;47.460;19.016;2023-07-31T14:45:23;3.00;;;1.33;;
58756;SDS011;44527;47.460;19.016;2023-07-31T14:48:26;3.35;;;1.10;;
58756;SDS011;44527;47.460;19.016;2023-07-31T14:51:29;4.20;;;1.17;;
58756;SDS011;44527;47.460;19.016;2023-07-31T14:54:31;3.65;;;1.08;;
58756;SDS011;44527;47.460;19.016;2023-07-31T14:57:34;5.18;;;1.00;;
58756;SDS011;44527;47.460;19.016;2023-07-31T15:00:36;4.60;;;1.42;;
58756;SDS011;44527;47.460;19.016;2023-07-31T15:03:39;4.90;;;0.88;;
58756;SDS011;44527;47.460;19.016;2023-07-31T15:06:41;2.78;;;1.05;;
58756;SDS011;44527;47.460;19.016;2023-07-31T15:09:44;2.87;;;1.00;;
58756;SDS011;44527;47.460;19.016;2023-07-31T15:12:46;3.72;;;1.02;;
58756;SDS011;44527;47.460;19.016;2023-07-31T15:15:49;2.37;;;0.98;;
58756;SDS011;44527;47.460;19.016;2023-07-31T15:18:51;3.83;;;1.10;;
58756;SDS011;44527;47.460;19.016;2023-07-31T15:21:53;7.35;;;1.35;;
58756;SDS011;44527;47.460;19.016;2023-07-31T15:24:56;3.70;;;1.10;;
58756;SDS011;44527;47.460;19.016;2023-07-31T15:27:58;3.40;;;1.00;;
58756;SDS011;44527;47.460;19.016;2023-07-31T15:31:01;6.62;;;1.70;;
58756;SDS011;44527;47.460;19.016;2023-07-31T15:34:03;2.78;;;0.98;;
58756;SDS011;44527;47.460;19.016;2023-07-31T15:37:05;4.05;;;1.08;;
58756;SDS011;44527;47.460;19.016;2023-07-31T15:40:08;3.05;;;1.08;;
58756;SDS011;44527;47.460;19.016;2023-07-31T15:43:11;6.62;;;1.20;;
58756;SDS011;44527;47.460;19.016;2023-07-31T15:46:13;3.47;;;1.10;;
58756;SDS011;44527;47.460;19.016;2023-07-31T15:49:16;4.60;;;1.17;;
58756;SDS011;44527;47.460;19.016;2023-07-31T15:52:18;5.68;;;1.17;;
58756;SDS011;44527;47.460;19.016;2023-07-31T15:55:21;2.53;;;1.05;;
58756;SDS011;44527;47.460;19.016;2023-07-31T15:58:24;2.60;;;1.08;;
58756;SDS011;44527;47.460;19.016;2023-07-31T16:01:26;3.67;;;1.05;;
58756;SDS011;44527;47.460;19.016;2023-07-31T16:04:30;3.17;;;0.85;;
58756;SDS011;44527;47.460;19.016;2023-07-31T16:07:32;2.87;;;1.10;;
58756;SDS011;44527;47.460;19.016;2023-07-31T16:10:34;6.62;;;1.23;;
58756;SDS011;44527;47.460;19.016;2023-07-31T16:13:37;2.62;;;1.20;;
58756;SDS011;44527;47.460;19.016;2023-07-31T16:16:39;2.47;;;1.00;;
58756;SDS011;44527;47.460;19.016;2023-07-31T16:19:42;2.78;;;1.00;;
58756;SDS011;44527;47.460;19.016;2023-07-31T16:22:44;5.35;;;1.17;;
58756;SDS011;44527;47.460;19.016;2023-07-31T16:25:47;4.22;;;0.98;;
58756;SDS011;44527;47.460;19.016;2023-07-31T16:28:50;2.28;;;1.20;;
58756;SDS011;44527;47.460;19.016;2023-07-31T16:31:53;2.00;;;1.00;;
58756;SDS011;44527;47.460;19.016;2023-07-31T16:34:59;3.87;;;0.93;;
58756;SDS011;44527;47.460;19.016;2023-07-31T16:38:02;6.97;;;1.25;;
58756;SDS011;44527;47.460;19.016;2023-07-31T16:41:05;3.25;;;0.80;;
58756;SDS011;44527;47.460;19.016;2023-07-31T16:44:07;3.90;;;1.27;;
58756;SDS011;44527;47.460;19.016;2023-07-31T16:47:10;2.45;;;1.00;;
58756;SDS011;44527;47.460;19.016;2023-07-31T16:50:12;7.07;;;1.20;;
58756;SDS011;44527;47.460;19.016;2023-07-31T16:53:15;3.22;;;1.40;;
58756;SDS011;44527;47.460;19.016;2023-07-31T16:56:17;2.58;;;1.23;;
58756;SDS011;44527;47.460;19.016;2023-07-31T16:59:19;4.82;;;1.20;;
58756;SDS011;44527;47.460;19.016;2023-07-31T17:02:22;3.53;;;1.00;;
58756;SDS011;44527;47.460;19.016;2023-07-31T17:05:24;6.70;;;1.00;;
58756;SDS011;44527;47.460;19.016;2023-07-31T17:08:27;2.65;;;1.40;;
58756;SDS011;44527;47.460;19.016;2023-07-31T17:11:29;3.03;;;1.00;;
58756;SDS011;44527;47.460;19.016;2023-07-31T17:14:31;6.70;;;1.37;;
58756;SDS011;44527;47.460;19.016;2023-07-31T17:17:34;6.28;;;1.20;;
58756;SDS011;44527;47.460;19.016;2023-07-31T17:20:36;2.40;;;1.00;;
58756;SDS011;44527;47.460;19.016;2023-07-31T17:23:39;5.12;;;1.00;;
58756;SDS011;44527;47.460;19.016;2023-07-31T17:26:42;3.35;;;1.00;;
58756;SDS011;44527;47.460;19.016;2023-07-31T17:29:44;5.22;;;1.15;;
58756;SDS011;44527;47.460;19.016;2023-07-31T17:32:46;3.40;;;1.08;;
58756;SDS011;44527;47.460;19.016;2023-07-31T17:35:49;4.60;;;1.27;;
58756;SDS011;44527;47.460;19.016;2023-07-31T17:38:51;3.72;;;1.05;;
58756;SDS011;44527;47.460;19.016;2023-07-31T17:41:54;1.42;;;0.80;;
58756;SDS011;44527;47.460;19.016;2023-07-31T17:44:56;5.22;;;1.10;;
58756;SDS011;44527;47.460;19.016;2023-07-31T17:47:59;4.47;;;0.95;;
58756;SDS011;44527;47.460;19.016;2023-07-31T17:51:01;5.30;;;0.93;;
58756;SDS011;44527;47.460;19.016;2023-07-31T17:54:04;4.12;;;1.27;;
58756;SDS011;44527;47.460;19.016;2023-07-31T17:57:07;3.90;;;1.42;;
58756;SDS011;44527;47.460;19.016;2023-07-31T18:00:10;2.95;;;0.93;;
58756;SDS011;44527;47.460;19.016;2023-07-31T18:03:13;5.05;;;1.02;;
58756;SDS011;44527;47.460;19.016;2023-07-31T18:06:15;6.75;;;0.95;;
58756;SDS011;44527;47.460;19.016;2023-07-31T18:09:18;5.35;;;1.27;;
58756;SDS011;44527;47.460;19.016;2023-07-31T18:12:20;1.95;;;0.90;;
58756;SDS011;44527;47.460;19.016;2023-07-31T18:15:23;3.70;;;1.08;;
58756;SDS011;44527;47.460;19.016;2023-07-31T18:18:25;5.60;;;1.12;;
58756;SDS011;44527;47.460;19.016;2023-07-31T18:21:28;5.72;;;1.10;;
58756;SDS011;44527;47.460;19.016;2023-07-31T18:24:31;6.12;;;1.23;;
58756;SDS011;44527;47.460;19.016;2023-07-31T18:27:33;5.07;;;1.02;;